Time;durP1;ratioP1;P1;durP2;ratioP2;P2;SDS_P1;SDS_P2;PMS_P1;PMS_P2;Temp;Humidity;BMP_temperature;BMP_pressure;BME280_temperature;BME280_humidity;BME280_pressure;Samples;Min_cycle;Max_cycle;Signal;HPM_P1;HPM_P2
2022/08/25 00:01:53;;;;;;;6.10;5.47;;;18.20;76.80;;;;;;5071282;28;20844;-55
2022/08/25 00:04:21;;;;;;;6.30;4.97;;;18.10;76.20;;;;;;5072083;28;20917;-55
2022/08/25 00:06:48;;;;;;;5.83;5.23;;;18.10;76.00;;;;;;5074210;28;20481;-55
2022/08/25 00:09:18;;;;;;;5.73;4.83;;;18.10;77.40;;;;;;5070385;28;21430;-55
2022/08/25 00:11:46;;;;;;;6.00;5.17;;;18.00;77.90;;;;;;5070165;28;20495;-55
2022/08/25 00:14:15;;;;;;;7.00;6.27;;;18.00;77.50;;;;;;5069741;28;20482;-55
2022/08/25 00:16:42;;;;;;;11.83;5.73;;;18.00;76.90;;;;;;5065360;28;20477;-55
2022/08/25 00:19:16;;;;;;;6.50;4.90;;;18.00;77.40;;;;;;5063168;28;20503;-55
2022/08/25 00:21:44;;;;;;;6.43;5.80;;;18.00;77.70;;;;;;5064938;28;20670;-55
2022/08/25 00:24:12;;;;;;;7.20;6.50;;;18.00;77.50;;;;;;5070421;28;20488;-54
2022/08/25 00:26:41;;;;;;;6.83;5.23;;;17.90;77.90;;;;;;5061643;28;20482;-55
2022/08/25 00:29:09;;;;;;;6.63;5.90;;;17.80;77.80;;;;;;5067924;28;20985;-55
2022/08/25 00:31:36;;;;;;;6.17;4.97;;;17.80;78.50;;;;;;5070710;28;21038;-56
2022/08/25 00:34:06;;;;;;;6.57;5.97;;;17.70;78.20;;;;;;5070242;28;20485;-56
2022/08/25 00:36:34;;;;;;;7.00;5.93;;;17.70;78.20;;;;;;5071613;28;20484;-56
2022/08/25 00:39:01;;;;;;;5.50;4.97;;;17.60;78.20;;;;;;5067313;28;21042;-55
2022/08/25 00:41:28;;;;;;;6.17;5.23;;;17.60;78.70;;;;;;5063945;28;20897;-56
2022/08/25 00:43:58;;;;;;;8.60;5.90;;;17.50;78.40;;;;;;5071177;28;20484;-55
2022/08/25 00:46:27;;;;;;;8.73;5.90;;;17.50;78.70;;;;;;5075329;28;20245;-55
2022/08/25 00:48:58;;;;;;;5.50;4.63;;;17.30;79.10;;;;;;5078557;28;20482;-54
2022/08/25 00:51:32;;;;;;;7.90;6.33;;;17.20;79.60;;;;;;5063592;28;20977;-55
2022/08/25 00:54:01;;;;;;;8.33;6.03;;;17.10;80.30;;;;;;5081376;28;20486;-55
2022/08/25 00:56:30;;;;;;;8.90;5.90;;;17.00;80.30;;;;;;5068011;28;20474;-55
2022/08/25 00:58:57;;;;;;;5.60;5.00;;;17.00;80.20;;;;;;5068418;28;20474;-55
2022/08/25 01:01:25;;;;;;;5.93;5.33;;;16.90;80.40;;;;;;5070213;28;20888;-55
2022/08/25 01:03:51;;;;;;;5.70;5.10;;;17.00;80.00;;;;;;5076712;28;20568;-55
2022/08/25 01:06:18;;;;;;;6.13;5.40;;;17.00;79.60;;;;;;5071169;28;20474;-55
2022/08/25 01:08:46;;;;;;;5.30;4.77;;;17.00;79.50;;;;;;5063916;28;20952;-55
2022/08/25 01:11:14;;;;;;;7.00;5.03;;;17.00;78.70;;;;;;5074796;28;21035;-55
2022/08/25 01:13:44;;;;;;;6.47;5.20;;;17.00;79.60;;;;;;5071835;28;20734;-55
2022/08/25 01:16:12;;;;;;;5.43;4.73;;;17.00;79.30;;;;;;5072118;28;20574;-55
2022/08/25 01:18:47;;;;;;;6.37;4.70;;;16.90;79.10;;;;;;5056384;28;20493;-55
2022/08/25 01:21:17;;;;;;;5.27;4.40;;;17.00;80.10;;;;;;5082699;28;20857;-55
2022/08/25 01:23:44;;;;;;;6.57;5.77;;;16.90;79.80;;;;;;5067509;28;20538;-55
2022/08/25 01:26:14;;;;;;;8.73;5.50;;;16.90;79.90;;;;;;5074454;28;20481;-55
2022/08/25 01:29:19;;;;;;;6.47;5.90;;;16.90;80.10;;;;;;5095375;27;20483;-55
2022/08/25 01:31:31;;;;;;;6.43;5.50;;;17.00;79.80;;;;;;5073413;28;20937;-55
2022/08/25 01:33:58;;;;;;;7.90;5.00;;;17.00;80.70;;;;;;5069005;28;20559;-55
2022/08/25 01:36:27;;;;;;;6.07;4.73;;;16.80;80.80;;;;;;5075357;28;20917;-55
2022/08/25 01:38:55;;;;;;;6.93;5.27;;;16.80;80.50;;;;;;5069579;28;20650;-55
2022/08/25 01:41:30;;;;;;;8.73;4.60;;;16.70;80.40;;;;;;5066086;28;20478;-55
2022/08/25 01:43:57;;;;;;;5.70;5.10;;;16.70;80.60;;;;;;5085972;28;20481;-55
2022/08/25 01:46:23;;;;;;;6.63;5.83;;;16.60;80.40;;;;;;5075792;28;20579;-55
2022/08/25 01:48:50;;;;;;;5.77;5.20;;;16.50;80.70;;;;;;5071005;28;20480;-55
2022/08/25 01:51:20;;;;;;;6.73;5.20;;;16.50;80.30;;;;;;5070316;28;20503;-55
2022/08/25 01:53:49;;;;;;;6.07;5.33;;;16.50;80.90;;;;;;5094575;27;20472;-55
2022/08/25 01:56:17;;;;;;;5.30;4.80;;;16.50;81.20;;;;;;5074206;28;20512;-55
2022/08/25 01:58:46;;;;;;;5.97;5.37;;;16.50;80.80;;;;;;5070879;28;20557;-55
2022/08/25 02:01:16;;;;;;;6.63;5.83;;;16.40;80.60;;;;;;5065024;28;20747;-55
2022/08/25 02:03:45;;;;;;;5.63;4.83;;;16.40;81.30;;;;;;5079406;28;21023;-55
2022/08/25 02:06:13;;;;;;;8.87;5.60;;;16.40;80.80;;;;;;5083960;28;20987;-54
2022/08/25 02:08:40;;;;;;;10.37;6.00;;;16.40;80.60;;;;;;5075226;28;21025;-55
2022/08/25 02:11:11;;;;;;;10.83;5.90;;;16.40;81.70;;;;;;5072812;28;20955;-55
2022/08/25 02:13:38;;;;;;;9.23;5.37;;;16.40;82.00;;;;;;5073390;28;20904;-55
2022/08/25 02:16:05;;;;;;;13.50;5.20;;;16.50;82.10;;;;;;5063551;28;20476;-55
2022/08/25 02:18:32;;;;;;;7.37;5.60;;;16.50;82.50;;;;;;5070725;28;20489;-55
2022/08/25 02:20:59;;;;;;;6.77;5.73;;;16.40;81.50;;;;;;5073316;28;20909;-55
2022/08/25 02:23:25;;;;;;;6.20;5.60;;;16.40;81.50;;;;;;5074123;28;20943;-55
2022/08/25 02:25:53;;;;;;;9.23;5.90;;;16.30;81.90;;;;;;5074454;28;20832;-55
2022/08/25 02:28:21;;;;;;;5.37;4.77;;;16.30;81.90;;;;;;5070434;28;20485;-55
2022/08/25 02:30:47;;;;;;;6.43;5.70;;;16.30;81.40;;;;;;5071483;28;20489;-55
2022/08/25 02:33:14;;;;;;;7.00;5.87;;;16.30;81.90;;;;;;5072526;28;20477;-55
2022/08/25 02:35:41;;;;;;;7.63;5.50;;;16.30;82.20;;;;;;5073721;28;20494;-55
2022/08/25 02:38:07;;;;;;;5.50;4.93;;;16.40;81.90;;;;;;5070278;28;20486;-55
2022/08/25 02:40:34;;;;;;;6.57;5.80;;;16.40;82.40;;;;;;5072329;28;20707;-55
2022/08/25 02:43:01;;;;;;;6.97;5.27;;;16.40;81.40;;;;;;5063690;28;20482;-55
2022/08/25 02:45:29;;;;;;;5.20;4.70;;;16.30;81.80;;;;;;5070456;28;20968;-55
2022/08/25 02:47:56;;;;;;;8.87;6.40;;;16.20;82.60;;;;;;5069640;28;20480;-55
2022/08/25 02:50:23;;;;;;;6.30;5.03;;;16.10;82.50;;;;;;5071064;28;21287;-55
2022/08/25 02:52:51;;;;;;;10.83;5.93;;;16.10;82.20;;;;;;5068585;27;20919;-55
2022/08/25 02:55:18;;;;;;;6.40;5.07;;;16.10;82.20;;;;;;5071835;28;21027;-54
2022/08/25 02:57:45;;;;;;;6.83;5.20;;;16.10;82.20;;;;;;5070007;28;20605;-54
2022/08/25 03:00:14;;;;;;;6.23;5.50;;;16.10;81.80;;;;;;5069615;28;20829;-54
2022/08/25 03:02:42;;;;;;;7.37;5.00;;;16.10;82.20;;;;;;5057121;28;20485;-54
2022/08/25 03:05:10;;;;;;;6.43;4.53;;;16.00;82.30;;;;;;5053159;28;21020;-55
2022/08/25 03:07:37;;;;;;;6.43;5.70;;;16.00;82.80;;;;;;5080120;28;20482;-55
2022/08/25 03:10:07;;;;;;;10.00;5.70;;;16.00;82.40;;;;;;5063763;28;20566;-55
2022/08/25 03:12:34;;;;;;;9.30;5.77;;;16.10;82.50;;;;;;5070499;28;21128;-55
2022/08/25 03:15:00;;;;;;;5.87;5.30;;;16.10;82.80;;;;;;5069686;28;20482;-55
2022/08/25 03:17:27;;;;;;;8.83;5.60;;;15.90;83.60;;;;;;5065078;28;20481;-55
2022/08/25 03:19:56;;;;;;;6.50;5.90;;;15.90;83.70;;;;;;5067536;28;20503;-55
2022/08/25 03:22:22;;;;;;;6.00;5.40;;;15.80;84.00;;;;;;5069223;28;20501;-55
2022/08/25 03:24:49;;;;;;;7.53;5.40;;;15.60;84.20;;;;;;5073104;28;20484;-55
2022/08/25 03:27:15;;;;;;;5.97;5.37;;;15.40;85.10;;;;;;5067577;28;20798;-55
2022/08/25 03:29:41;;;;;;;16.17;6.43;;;15.40;84.90;;;;;;5068550;28;21260;-54
2022/08/25 03:32:08;;;;;;;6.70;5.40;;;15.50;85.10;;;;;;5081947;27;20750;-54
2022/08/25 03:34:35;;;;;;;7.23;5.90;;;15.50;85.40;;;;;;5077784;27;20477;-54
2022/08/25 03:37:07;;;;;;;5.90;5.00;;;15.50;85.10;;;;;;5059880;28;20485;-54
2022/08/25 03:39:34;;;;;;;5.30;4.80;;;15.50;85.00;;;;;;5069825;28;20853;-54
2022/08/25 03:42:04;;;;;;;6.23;5.60;;;15.50;84.90;;;;;;5058504;28;20512;-54
2022/08/25 03:44:30;;;;;;;7.00;5.50;;;15.40;85.30;;;;;;5082669;28;20887;-54
2022/08/25 03:46:57;;;;;;;7.63;5.27;;;15.40;85.60;;;;;;5059243;28;20478;-54
2022/08/25 03:49:24;;;;;;;6.27;5.67;;;15.40;85.40;;;;;;5086333;28;20512;-54
2022/08/25 03:51:53;;;;;;;5.93;5.20;;;15.30;85.70;;;;;;5071320;28;20517;-54
2022/08/25 03:54:23;;;;;;;7.20;5.30;;;15.30;85.70;;;;;;5072084;28;20982;-54
2022/08/25 03:56:50;;;;;;;7.70;5.90;;;15.30;86.00;;;;;;5069814;28;20477;-54
2022/08/25 03:59:17;;;;;;;7.40;5.20;;;15.20;86.20;;;;;;5071856;28;20462;-54
2022/08/25 04:01:45;;;;;;;6.73;5.90;;;15.20;86.80;;;;;;5062851;28;20975;-54
2022/08/25 04:04:13;;;;;;;7.10;6.40;;;15.20;86.30;;;;;;5077570;27;20484;-54
2022/08/25 04:06:40;;;;;;;15.50;6.27;;;15.30;86.20;;;;;;5063802;27;20484;-55
2022/08/25 04:09:08;;;;;;;6.17;5.57;;;15.40;85.60;;;;;;5033954;27;20496;-54
2022/08/25 04:11:36;;;;;;;8.53;6.10;;;15.40;85.40;;;;;;5086375;27;20887;-54
2022/08/25 04:14:04;;;;;;;11.03;5.73;;;15.50;85.50;;;;;;5093398;27;20477;-54
2022/08/25 04:16:33;;;;;;;6.17;5.63;;;15.50;85.00;;;;;;5071800;28;20490;-55
2022/08/25 04:19:02;;;;;;;6.33;5.60;;;15.50;85.10;;;;;;5069716;28;21061;-54
2022/08/25 04:21:29;;;;;;;9.73;5.33;;;15.50;84.30;;;;;;5070170;28;20477;-54
2022/08/25 04:23:56;;;;;;;6.10;5.00;;;15.50;84.90;;;;;;5071438;28;20493;-53
2022/08/25 04:26:25;;;;;;;10.37;5.23;;;15.60;84.60;;;;;;5072082;28;20473;-53
2022/08/25 04:28:54;;;;;;;14.53;5.70;;;15.60;84.90;;;;;;5055006;28;20820;-53
2022/08/25 04:31:21;;;;;;;9.97;6.70;;;15.50;85.50;;;;;;5071825;28;20837;-54
2022/08/25 04:33:49;;;;;;;7.50;6.60;;;15.60;85.60;;;;;;5075015;28;20867;-54
2022/08/25 04:36:17;;;;;;;6.97;5.83;;;15.60;85.70;;;;;;5072975;28;20496;-54
2022/08/25 04:38:45;;;;;;;9.27;6.37;;;15.60;86.70;;;;;;5063617;28;20476;-54
2022/08/25 04:41:14;;;;;;;7.70;6.07;;;15.50;85.70;;;;;;5085561;28;20488;-54
2022/08/25 04:43:43;;;;;;;10.13;5.07;;;15.40;85.50;;;;;;5066832;28;20809;-54
2022/08/25 04:46:14;;;;;;;8.57;5.77;;;15.40;85.10;;;;;;5061013;28;20485;-54
2022/08/25 04:48:41;;;;;;;18.47;5.90;;;;;;;;;;5079164;28;21348;-54
2022/08/25 04:51:11;;;;;;;6.20;5.60;;;15.40;85.70;;;;;;5075019;28;20478;-53
2022/08/25 04:53:39;;;;;;;6.43;5.30;;;15.50;86.60;;;;;;5073985;28;20482;-53
2022/08/25 04:56:07;;;;;;;9.10;6.33;;;15.50;86.30;;;;;;5072865;28;20481;-53
2022/08/25 04:58:34;;;;;;;7.63;6.20;;;15.40;86.40;;;;;;5069236;28;21108;-53
2022/08/25 05:01:05;;;;;;;8.87;6.83;;;15.40;86.90;;;;;;5066937;28;20882;-53
2022/08/25 05:03:33;;;;;;;9.67;5.90;;;15.20;86.90;;;;;;5068705;28;20470;-53
2022/08/25 05:06:00;;;;;;;12.20;5.73;;;15.20;87.00;;;;;;5076204;28;20478;-53
2022/08/25 05:08:27;;;;;;;5.67;5.20;;;15.20;86.60;;;;;;5070369;28;21056;-53
2022/08/25 05:10:55;;;;;;;7.13;5.63;;;15.20;87.30;;;;;;5073764;28;20680;-53
2022/08/25 05:13:22;;;;;;;7.83;6.93;;;15.20;86.70;;;;;;5063136;28;21181;-53
2022/08/25 05:15:53;;;;;;;9.30;5.63;;;15.20;87.00;;;;;;5070521;28;20813;-53
2022/08/25 05:18:21;;;;;;;5.77;5.13;;;15.20;86.80;;;;;;5058215;28;20473;-53
2022/08/25 05:20:50;;;;;;;6.27;5.47;;;15.20;86.60;;;;;;5064204;28;20488;-53
2022/08/25 05:23:17;;;;;;;10.07;5.57;;;15.20;86.90;;;;;;5076167;28;20529;-53
2022/08/25 05:25:44;;;;;;;8.63;5.60;;;15.20;87.50;;;;;;5072306;28;20477;-53
2022/08/25 05:28:11;;;;;;;6.67;6.07;;;15.30;87.80;;;;;;5070298;28;20504;-53
2022/08/25 05:30:39;;;;;;;11.40;7.07;;;15.30;87.80;;;;;;5072742;28;20493;-53
2022/08/25 05:33:06;;;;;;;6.00;5.33;;;15.40;87.90;;;;;;5065855;28;20490;-53
2022/08/25 05:35:32;;;;;;;8.77;7.87;;;15.50;87.90;;;;;;5077282;28;20489;-53
2022/08/25 05:38:00;;;;;;;12.47;7.00;;;15.60;88.40;;;;;;5080488;28;20478;-53
2022/08/25 05:40:27;;;;;;;11.27;8.20;;;15.70;88.40;;;;;;5068728;28;20489;-53
2022/08/25 05:42:54;;;;;;;7.50;6.57;;;15.80;89.10;;;;;;5066616;28;20896;-53
2022/08/25 05:45:21;;;;;;;7.30;6.60;;;15.80;90.00;;;;;;5077404;28;20908;-53
2022/08/25 05:47:48;;;;;;;10.37;8.30;;;16.10;92.10;;;;;;5066212;28;21039;-53
2022/08/25 05:50:15;;;;;;;10.50;8.10;;;16.20;92.30;;;;;;5068980;28;20553;-53
2022/08/25 05:52:43;;;;;;;8.97;8.00;;;16.40;92.50;;;;;;5066684;28;20476;-52
2022/08/25 05:55:11;;;;;;;10.73;8.30;;;16.60;92.50;;;;;;5075032;28;22219;-53
2022/08/25 05:57:38;;;;;;;10.27;8.10;;;16.60;92.40;;;;;;5067696;28;20485;-53
2022/08/25 06:00:06;;;;;;;17.83;7.83;;;16.90;92.40;;;;;;5073126;28;20478;-53
2022/08/25 06:02:43;;;;;;;9.07;8.07;;;17.00;92.70;;;;;;5070934;28;20485;-53
2022/08/25 06:05:12;;;;;;;9.10;8.27;;;17.20;92.60;;;;;;5078055;28;20505;-53
2022/08/25 06:07:39;;;;;;;9.27;8.37;;;17.20;92.60;;;;;;5059182;28;20713;-53
2022/08/25 06:10:10;;;;;;;8.70;7.80;;;17.30;92.70;;;;;;5085544;28;20975;-53
2022/08/25 06:12:40;;;;;;;9.07;7.87;;;17.50;92.40;;;;;;5052816;28;20492;-53
2022/08/25 06:15:08;;;;;;;9.97;7.50;;;17.60;92.30;;;;;;5090459;27;20484;-53
2022/08/25 06:17:39;;;;;;;8.47;7.60;;;17.70;92.40;;;;;;5072716;27;20477;-53
2022/08/25 06:20:07;;;;;;;12.27;6.93;;;17.90;92.50;;;;;;5069973;28;21033;-53
2022/08/25 06:22:34;;;;;;;10.77;8.27;;;18.10;92.30;;;;;;5068205;28;20848;-53
2022/08/25 06:25:01;;;;;;;9.10;7.43;;;18.30;92.30;;;;;;5072589;28;20962;-53
2022/08/25 06:27:28;;;;;;;10.10;7.60;;;18.60;92.30;;;;;;5062029;27;21052;-53
2022/08/25 06:29:56;;;;;;;8.40;7.07;;;18.80;92.10;;;;;;5078215;27;20474;-52
2022/08/25 06:32:23;;;;;;;8.40;6.60;;;19.20;92.20;;;;;;5071568;28;21025;-52
2022/08/25 06:34:50;;;;;;;11.50;6.97;;;20.20;92.00;;;;;;5071011;28;20466;-52
2022/08/25 06:37:16;;;;;;;26.83;10.47;;;20.60;91.50;;;;;;5069587;28;20743;-52
2022/08/25 06:39:43;;;;;;;7.37;6.67;;;21.50;88.70;;;;;;5069913;28;20488;-52
2022/08/25 06:42:10;;;;;;;6.13;5.60;;;21.80;87.80;;;;;;5068372;28;20489;-53
2022/08/25 06:44:36;;;;;;;8.60;6.47;;;22.00;87.60;;;;;;5069353;28;20483;-52
2022/08/25 06:47:05;;;;;;;8.00;6.07;;;22.50;86.60;;;;;;5070294;28;20477;-52
2022/08/25 06:49:31;;;;;;;6.50;5.87;;;22.70;86.30;;;;;;5072013;28;20489;-53
2022/08/25 06:51:58;;;;;;;6.43;5.83;;;23.50;84.60;;;;;;5057806;28;20477;-52
2022/08/25 06:54:25;;;;;;;6.03;5.13;;;23.60;85.00;;;;;;5072639;28;20558;-52
2022/08/25 06:56:52;;;;;;;6.90;5.00;;;24.70;82.30;;;;;;5070946;28;20536;-52
2022/08/25 06:59:19;;;;;;;5.10;4.60;;;25.30;81.30;;;;;;5071798;28;20910;-53
2022/08/25 07:01:46;;;;;;;4.53;4.13;;;25.50;80.60;;;;;;5055073;27;21018;-52
2022/08/25 07:04:14;;;;;;;8.23;5.13;;;26.30;78.50;;;;;;5103118;27;20239;-53
2022/08/25 07:06:41;;;;;;;5.10;4.60;;;26.80;75.90;;;;;;5060699;27;20482;-53
2022/08/25 07:09:09;;;;;;;5.90;4.57;;;27.20;75.40;;;;;;5068510;28;21333;-53
2022/08/25 07:11:36;;;;;;;4.60;4.10;;;27.30;74.70;;;;;;5072024;28;20477;-53
2022/08/25 07:14:04;;;;;;;5.03;4.50;;;27.80;73.50;;;;;;5070081;28;20857;-53
2022/08/25 07:16:32;;;;;;;5.33;4.83;;;27.80;72.00;;;;;;5067607;28;21312;-53
2022/08/25 07:19:00;;;;;;;6.53;3.80;;;27.80;72.40;;;;;;5067882;28;20481;-52
2022/08/25 07:21:31;;;;;;;4.23;3.83;;;27.80;72.90;;;;;;5066514;28;20482;-53
2022/08/25 07:23:59;;;;;;;5.17;4.60;;;27.80;71.40;;;;;;5062590;28;20478;-53
2022/08/25 07:26:28;;;;;;;4.87;3.93;;;27.80;71.50;;;;;;5070804;28;20678;-53
2022/08/25 07:28:55;;;;;;;5.23;4.73;;;27.80;72.00;;;;;;5063205;28;20987;-53
2022/08/25 07:31:22;;;;;;;5.67;4.43;;;27.80;71.70;;;;;;5072478;28;20974;-52
2022/08/25 07:36:34;;;;;;;5.30;4.80;;;27.90;72.00;;;;;;5071928;28;20477;-53
2022/08/25 07:39:04;;;;;;;4.67;3.97;;;28.00;72.20;;;;;;5069568;28;20897;-53
2022/08/25 07:41:31;;;;;;;6.40;4.20;;;28.10;71.30;;;;;;5069399;28;21042;-52
2022/08/25 07:43:58;;;;;;;5.23;4.67;;;28.10;71.10;;;;;;5071008;28;21020;-52
2022/08/25 07:46:25;;;;;;;5.97;4.80;;;28.20;71.10;;;;;;5073169;28;20817;-53
2022/08/25 07:48:51;;;;;;;4.47;4.07;;;28.30;71.10;;;;;;5066283;28;20482;-52
2022/08/25 07:51:18;;;;;;;5.17;4.67;;;28.40;70.80;;;;;;5070346;28;20482;-53
2022/08/25 07:53:46;;;;;;;5.80;4.53;;;28.50;70.80;;;;;;5065110;28;20488;-52
2022/08/25 07:56:15;;;;;;;4.20;3.80;;;28.50;70.40;;;;;;5085227;27;20468;-52
2022/08/25 07:58:43;;;;;;;5.20;4.70;;;28.60;70.30;;;;;;5073696;27;20477;-52
2022/08/25 08:01:14;;;;;;;4.87;4.30;;;28.80;70.30;;;;;;5065314;28;20790;-52
2022/08/25 08:03:41;;;;;;;4.50;4.10;;;28.80;70.20;;;;;;5065109;28;20486;-53
2022/08/25 08:06:09;;;;;;;5.83;3.67;;;29.10;69.10;;;;;;5066293;28;20482;-52
2022/08/25 08:08:37;;;;;;;4.93;3.80;;;29.20;69.60;;;;;;5064784;28;20486;-53
2022/08/25 08:11:05;;;;;;;5.30;4.07;;;29.40;69.00;;;;;;5060451;28;20580;-53
2022/08/25 08:13:32;;;;;;;4.87;4.33;;;29.70;69.40;;;;;;5070153;28;21032;-53
2022/08/25 08:15:59;;;;;;;6.93;4.13;;;29.70;69.90;;;;;;5078753;28;20482;-52
2022/08/25 08:18:26;;;;;;;4.90;4.27;;;29.90;68.00;;;;;;5065287;28;20485;-53
2022/08/25 08:20:52;;;;;;;4.67;4.17;;;30.10;67.30;;;;;;5067179;28;20485;-52
2022/08/25 08:23:19;;;;;;;4.53;4.10;;;30.10;67.00;;;;;;5067363;28;21060;-53
2022/08/25 08:25:47;;;;;;;5.70;4.67;;;30.20;67.40;;;;;;5063800;28;20531;-52
2022/08/25 08:28:14;;;;;;;7.43;4.10;;;30.40;66.60;;;;;;5063851;28;20481;-53
2022/08/25 08:30:41;;;;;;;5.73;4.10;;;30.50;67.40;;;;;;5065098;28;20489;-52
2022/08/25 08:33:08;;;;;;;4.23;3.83;;;30.60;65.80;;;;;;5067617;28;20751;-52
2022/08/25 08:35:34;;;;;;;4.47;4.03;;;30.70;66.10;;;;;;5066110;28;21013;-54
2022/08/25 08:38:01;;;;;;;3.90;3.50;;;30.60;64.80;;;;;;5064963;28;20831;-53
2022/08/25 08:40:30;;;;;;;5.63;3.83;;;30.70;66.10;;;;;;5065165;28;20484;-53
2022/08/25 08:43:06;;;;;;;4.07;3.67;;;30.70;64.90;;;;;;5065715;28;20945;-53
2022/08/25 08:45:36;;;;;;;5.13;4.13;;;30.70;64.30;;;;;;5068426;28;20990;-53
2022/08/25 08:48:40;;;;;;;4.50;3.83;;;30.90;64.70;;;;;;5055052;28;21209;-54
2022/08/25 08:51:17;;;;;;;5.87;3.77;;;30.70;62.80;;;;;;5053560;28;20478;-53
2022/08/25 08:53:48;;;;;;;3.20;2.90;;;30.50;63.20;;;;;;5067794;28;20485;-53
2022/08/25 08:56:18;;;;;;;3.63;3.30;;;30.30;64.10;;;;;;5068521;28;20493;-53
2022/08/25 08:58:50;;;;;;;4.30;3.27;;;30.60;63.60;;;;;;5063004;28;20485;-53
2022/08/25 09:01:25;;;;;;;3.43;3.13;;;30.80;63.40;;;;;;5055313;28;20708;-53
2022/08/25 09:03:56;;;;;;;4.33;3.90;;;30.80;63.40;;;;;;5071676;28;20615;-53
2022/08/25 09:06:28;;;;;;;6.50;3.40;;;31.00;62.80;;;;;;5078653;28;20557;-52
2022/08/25 09:08:58;;;;;;;4.53;3.50;;;31.10;63.00;;;;;;5051643;28;20478;-52
2022/08/25 09:11:46;;;;;;;3.20;2.90;;;31.30;61.30;;;;;;5051195;28;20489;-53
2022/08/25 09:14:25;;;;;;;3.37;2.60;;;31.00;60.60;;;;;;5066048;28;20999;-53
2022/08/25 09:16:59;;;;;;;6.23;3.93;;;30.70;60.30;;;;;;5062958;28;20474;-53
2022/08/25 09:20:02;;;;;;;3.87;3.30;;;30.60;62.30;;;;;;5052320;28;20987;-53
2022/08/25 09:22:40;;;;;;;3.10;2.80;;;30.70;61.60;;;;;;5042110;28;20475;-53
2022/08/25 09:25:15;;;;;;;4.73;3.77;;;31.10;61.10;;;;;;5058094;28;20508;-54
2022/08/25 09:27:51;;;;;;;3.40;2.90;;;31.20;61.00;;;;;;5058710;28;20478;-53
2022/08/25 09:30:19;;;;;;;4.20;3.20;;;31.40;61.20;;;;;;5053929;28;20478;-53
2022/08/25 09:32:52;;;;;;;3.47;3.17;;;31.40;60.00;;;;;;5060670;28;20490;-53
2022/08/25 09:35:22;;;;;;;6.03;4.23;;;31.70;60.00;;;;;;5062275;28;20449;-53
2022/08/25 09:37:56;;;;;;;3.57;2.83;;;31.80;59.50;;;;;;5068857;28;20486;-53
2022/08/25 09:40:24;;;;;;;4.30;3.33;;;32.00;58.80;;;;;;5064246;28;20493;-54
2022/08/25 09:42:53;;;;;;;4.93;2.90;;;31.70;57.90;;;;;;5069001;28;20362;-53
2022/08/25 09:45:34;;;;;;;4.30;3.73;;;31.30;57.50;;;;;;5062227;28;20448;-53
2022/08/25 09:48:02;;;;;;;4.23;3.13;;;31.20;59.40;;;;;;5064672;28;20782;-53
2022/08/25 09:50:32;;;;;;;6.97;3.17;;;31.20;59.90;;;;;;5068543;28;20568;-52
2022/08/25 09:53:13;;;;;;;3.10;2.77;;;31.60;57.10;;;;;;5070377;28;20527;-53
2022/08/25 09:55:42;;;;;;;3.50;3.20;;;31.80;57.90;;;;;;5060746;28;20586;-52
2022/08/25 09:58:19;;;;;;;3.07;2.77;;;31.90;57.90;;;;;;5062793;28;20482;-53
2022/08/25 10:01:17;;;;;;;3.43;2.87;;;32.10;57.00;;;;;;5067542;28;20485;-52
2022/08/25 10:04:01;;;;;;;3.83;3.40;;;32.20;57.50;;;;;;5056562;28;20478;-52
2022/08/25 10:06:34;;;;;;;11.53;3.90;;;32.20;56.80;;;;;;5073854;28;20436;-52
2022/08/25 10:09:05;;;;;;;3.50;3.20;;;31.90;57.30;;;;;;5066070;28;20601;-52
2022/08/25 10:11:39;;;;;;;4.00;3.60;;;32.10;57.20;;;;;;5065988;28;20474;-53
2022/08/25 10:14:19;;;;;;;5.50;3.27;;;32.30;55.90;;;;;;5058028;28;20510;-52
2022/08/25 10:16:48;;;;;;;4.10;3.33;;;32.70;57.70;;;;;;5058421;28;20651;-53
2022/08/25 10:19:26;;;;;;;2.63;2.20;;;32.00;54.60;;;;;;5064155;28;20478;-53
2022/08/25 10:22:06;;;;;;;3.97;3.53;;;32.10;55.40;;;;;;5059543;28;20482;-52
2022/08/25 10:24:33;;;;;;;4.00;2.53;;;32.30;56.20;;;;;;5072916;28;20479;-51
2022/08/25 10:27:08;;;;;;;3.93;3.33;;;32.30;56.70;;;;;;5063663;28;20931;-52
2022/08/25 10:30:01;;;;;;;4.37;3.97;;;32.40;57.00;;;;;;5064827;28;20460;-52
2022/08/25 10:32:35;;;;;;;2.60;2.33;;;32.40;56.20;;;;;;5060518;28;20493;-52
2022/08/25 10:35:09;;;;;;;2.73;2.30;;;32.80;55.20;;;;;;5058011;28;21046;-52
2022/08/25 10:37:43;;;;;;;2.97;2.40;;;33.10;55.30;;;;;;5068330;28;20485;-51
2022/08/25 10:40:20;;;;;;;3.20;2.10;;;33.10;54.60;;;;;;5066980;28;20485;-54
2022/08/25 10:43:01;;;;;;;3.27;2.97;;;33.00;54.70;;;;;;5059453;28;20497;-53
2022/08/25 10:45:43;;;;;;;4.50;4.10;;;32.70;55.20;;;;;;5051320;28;20490;-51
2022/08/25 10:48:26;;;;;;;3.30;3.00;;;32.30;55.10;;;;;;5090164;27;20464;-51
2022/08/25 10:50:59;;;;;;;3.50;3.20;;;32.40;57.10;;;;;;5047399;28;20489;-52
2022/08/25 10:53:30;;;;;;;3.37;3.03;;;32.70;57.10;;;;;;5076908;28;20693;-51
2022/08/25 10:56:14;;;;;;;3.50;2.87;;;33.00;56.10;;;;;;5067614;28;20706;-51
2022/08/25 10:59:03;;;;;;;4.10;3.40;;;33.40;54.90;;;;;;5048554;28;20777;-53
2022/08/25 11:01:40;;;;;;;4.70;3.33;;;33.30;53.70;;;;;;5053984;28;20466;-53
2022/08/25 11:04:12;;;;;;;3.30;3.00;;;33.40;54.90;;;;;;5066105;28;20509;-52
2022/08/25 11:06:45;;;;;;;3.23;2.80;;;33.50;54.20;;;;;;5066299;28;20485;-52
2022/08/25 11:09:18;;;;;;;5.60;3.57;;;33.50;53.30;;;;;;5064398;28;20555;-52
2022/08/25 11:11:52;;;;;;;3.77;3.47;;;33.40;54.10;;;;;;5068183;28;20903;-52
2022/08/25 11:14:23;;;;;;;3.57;3.27;;;33.30;54.40;;;;;;5067506;28;21148;-52
2022/08/25 11:16:55;;;;;;;3.87;3.47;;;33.40;55.30;;;;;;5054259;28;20452;-53
2022/08/25 11:19:26;;;;;;;5.90;4.37;;;33.10;54.00;;;;;;5049129;28;20471;-52
2022/08/25 11:22:04;;;;;;;3.63;3.17;;;33.30;54.90;;;;;;5042973;28;20471;-53
2022/08/25 11:24:42;;;;;;;8.83;4.33;;;33.70;54.00;;;;;;5051142;28;20469;-53
2022/08/25 11:27:15;;;;;;;3.70;3.40;;;34.00;54.00;;;;;;5067522;28;21007;-53
2022/08/25 11:29:48;;;;;;;3.20;2.90;;;34.30;53.00;;;;;;5065402;28;20962;-52
2022/08/25 11:32:21;;;;;;;3.03;2.73;;;34.40;52.90;;;;;;5066412;28;20486;-52
2022/08/25 11:34:48;;;;;;;3.93;3.50;;;34.40;53.10;;;;;;5057768;28;20477;-52
2022/08/25 11:37:22;;;;;;;5.07;4.57;;;34.50;53.90;;;;;;5083029;27;21071;-52
2022/08/25 11:40:10;;;;;;;3.23;2.83;;;34.30;51.80;;;;;;5077274;27;20474;-51
2022/08/25 11:42:50;;;;;;;4.00;3.67;;;34.40;53.10;;;;;;5053028;28;20491;-53
2022/08/25 11:45:34;;;;;;;3.40;3.10;;;34.60;53.10;;;;;;5067844;28;20482;-52
2022/08/25 11:48:15;;;;;;;3.80;3.40;;;34.70;52.60;;;;;;5057123;28;20484;-53
2022/08/25 11:50:58;;;;;;;3.97;3.60;;;34.80;52.40;;;;;;5066495;28;20902;-50
2022/08/25 11:53:29;;;;;;;3.93;3.63;;;34.70;51.80;;;;;;5056957;28;20917;-52
2022/08/25 11:56:01;;;;;;;5.10;3.43;;;34.60;51.80;;;;;;5071486;28;20966;-52
2022/08/25 11:58:34;;;;;;;3.60;3.30;;;34.60;53.10;;;;;;5053342;28;20870;-52
2022/08/25 12:01:02;;;;;;;3.50;3.20;;;34.60;52.80;;;;;;5055019;28;20557;-52
2022/08/25 12:04:11;;;;;;;4.40;3.37;;;34.50;51.70;;;;;;5070042;28;20453;-52
2022/08/25 12:07:16;;;;;;;4.80;3.50;;;34.40;53.50;;;;;;5056206;28;20486;-52
2022/08/25 12:10:17;;;;;;;3.80;3.50;;;34.50;53.40;;;;;;5066637;28;20457;-51
2022/08/25 12:13:22;;;;;;;6.20;3.40;;;34.60;52.10;;;;;;5060185;28;20964;-52
2022/08/25 12:16:00;;;;;;;3.60;3.30;;;34.60;51.30;;;;;;5056877;27;20485;-51
2022/08/25 12:18:45;;;;;;;3.43;2.57;;;34.60;50.20;;;;;;5090341;27;20498;-52
2022/08/25 12:21:31;;;;;;;4.27;3.30;;;34.80;51.50;;;;;;5062247;28;20485;-51
2022/08/25 12:24:08;;;;;;;3.40;3.10;;;35.00;51.10;;;;;;5079748;27;20446;-52
2022/08/25 12:26:43;;;;;;;4.90;3.37;;;35.10;51.40;;;;;;5068259;28;20456;-55
2022/08/25 12:29:14;;;;;;;3.20;2.90;;;35.10;52.20;;;;;;5055377;28;20478;-53
2022/08/25 12:31:58;;;;;;;2.80;2.60;;;35.20;51.10;;;;;;5089676;27;20495;-53
2022/08/25 12:34:45;;;;;;;3.43;3.10;;;35.10;51.10;;;;;;5061144;28;20488;-53
2022/08/25 12:37:14;;;;;;;3.70;3.40;;;35.40;50.70;;;;;;5060440;28;21168;-53
2022/08/25 12:39:55;;;;;;;4.20;3.57;;;35.40;51.80;;;;;;5066986;28;21305;-53
2022/08/25 12:42:30;;;;;;;4.00;3.70;;;35.40;50.90;;;;;;5067610;28;20482;-53
2022/08/25 12:45:13;;;;;;;3.50;3.20;;;35.40;51.00;;;;;;5058391;28;20869;-51
2022/08/25 12:47:41;;;;;;;4.00;3.60;;;35.50;50.40;;;;;;5069755;28;20570;-54
2022/08/25 12:50:28;;;;;;;3.30;2.83;;;35.30;49.80;;;;;;5067685;28;20485;-52
2022/08/25 12:53:00;;;;;;;3.17;2.83;;;35.10;49.50;;;;;;5066925;28;20504;-52
2022/08/25 12:55:27;;;;;;;6.80;3.60;;;35.30;51.90;;;;;;5065149;28;20787;-52
2022/08/25 12:57:57;;;;;;;3.13;2.83;;;35.50;50.90;;;;;;5060978;28;20456;-52
2022/08/25 13:00:27;;;;;;;5.10;4.63;;;35.60;50.30;;;;;;5063542;28;20478;-52
2022/08/25 13:03:15;;;;;;;3.97;3.57;;;35.70;50.70;;;;;;5064483;28;20461;-52
2022/08/25 13:06:22;;;;;;;3.33;3.03;;;35.70;49.00;;;;;;5056614;28;20452;-52
2022/08/25 13:09:18;;;;;;;4.43;3.70;;;35.90;49.70;;;;;;5051886;28;20477;-52